X  Fermer Données météorologiques d'aviation de Metar     LFBE Bergerac-Roumanière Airport
Température
11°C Température
6°C Point de rosée
72% Humidité



Vent
5 KM/H
3 MPH
1 M/S
3 KTS



90°
E
Conditions actuelles

Clair Clair
Pression 1006.77 (hPa) - 29.73 (inHg)
Visibilité 6 (mile) - 9.7 (km)
Aéroport
Code de l'aéroport LFBE

Emplacement: Bergerac-Roumanière Airport
Distance: 26 (km)

Metar:
LFBE 220700Z AUTO 09003KT 020V140 9999 // NSC 11/06 Q1007

Temps: 22-02-2024 08:00 CET